Time;durP1;ratioP1;P1;durP2;ratioP2;P2;SDS_P1;SDS_P2;PMS_P1;PMS_P2;Temp;Humidity;BMP_temperature;BMP_pressure;BME280_temperature;BME280_humidity;BME280_pressure;Samples;Min_cycle;Max_cycle;Signal;HPM_P1;HPM_P2
2023/02/18 00:01:39;;;;;;;10.02;5.95;;;;;;;3.33;54.49;95550.38;5146282;27;20042;-74
2023/02/18 00:04:04;;;;;;;8.38;5.40;;;;;;;3.08;54.72;95524.91;5125988;27;20582;-74
2023/02/18 00:06:32;;;;;;;8.60;6.00;;;;;;;3.18;54.18;95545.91;5121395;28;20032;-74
2023/02/18 00:09:00;;;;;;;11.10;5.47;;;;;;;3.23;53.89;95532.88;5108414;28;20031;-74
2023/02/18 00:11:26;;;;;;;8.05;5.25;;;;;;;3.24;53.32;95534.56;5105689;28;20028;-74
2023/02/18 00:13:53;;;;;;;7.45;5.35;;;;;;;3.10;53.80;95519.72;5106396;28;20039;-74
2023/02/18 00:16:19;;;;;;;7.80;5.03;;;;;;;3.06;55.11;95516.44;5101908;28;20035;-75
2023/02/18 00:18:44;;;;;;;13.18;6.47;;;;;;;3.10;54.15;95524.88;5122883;27;20031;-74
2023/02/18 00:21:10;;;;;;;14.10;7.40;;;;;;;3.00;53.91;95526.97;5089180;28;20024;-75
2023/02/18 00:23:35;;;;;;;10.95;6.15;;;;;;;3.08;53.53;95526.66;5090088;28;20038;-75
2023/02/18 00:26:09;;;;;;;9.60;5.07;;;;;;;3.09;53.34;95511.19;5103329;28;21029;-75
2023/02/18 00:28:34;;;;;;;8.35;4.82;;;;;;;3.10;53.41;95505.16;5122783;28;20031;-75
2023/02/18 00:31:06;;;;;;;10.90;6.18;;;;;;;3.03;55.13;95502.91;5123336;28;20035;-75
2023/02/18 00:33:31;;;;;;;;;;;;;;;3.00;54.36;95501.31;5107030;28;20039;-75
2023/02/18 00:36:08;;;;;;;9.68;5.80;;;;;;;2.90;53.65;95474.38;5104473;28;20164;-75
2023/02/18 00:38:34;;;;;;;9.07;5.45;;;;;;;2.90;54.94;95489.78;5107831;28;20035;-74
2023/02/18 00:40:59;;;;;;;8.25;5.13;;;;;;;2.77;55.97;95479.16;5106935;28;20505;-74
2023/02/18 00:43:25;;;;;;;7.82;5.07;;;;;;;2.74;55.47;95493.88;5106533;28;20039;-75
2023/02/18 00:45:50;;;;;;;10.48;5.82;;;;;;;2.67;55.45;95491.56;5089614;28;20077;-74
2023/02/18 00:48:16;;;;;;;11.20;5.90;;;;;;;2.32;55.88;95487.03;5105313;28;20562;-74
2023/02/18 00:50:41;;;;;;;9.50;5.90;;;;;;;2.22;56.17;95494.22;5107295;28;20122;-74
2023/02/18 00:53:07;;;;;;;9.57;5.28;;;;;;;2.21;56.90;95487.44;5104420;28;20424;-75
2023/02/18 00:55:32;;;;;;;8.90;5.50;;;;;;;2.07;57.28;95492.28;5126165;28;20500;-74
2023/02/18 00:57:57;;;;;;;9.85;5.63;;;;;;;2.01;58.88;95499.31;5127217;27;20096;-74
2023/02/18 01:00:24;;;;;;;9.88;5.53;;;;;;;1.85;58.84;95490.53;5112246;28;20020;-74
2023/02/18 01:02:52;;;;;;;12.48;5.90;;;;;;;1.65;58.79;95496.41;5096062;28;20031;-74
2023/02/18 01:05:18;;;;;;;8.77;5.68;;;;;;;1.44;60.85;95499.75;5129851;27;20031;-74
2023/02/18 01:07:44;;;;;;;8.32;5.55;;;;;;;1.35;60.72;95500.91;5111642;28;20481;-74
2023/02/18 01:10:10;;;;;;;10.30;6.13;;;;;;;1.30;61.42;95498.50;5112502;28;20039;-73
2023/02/18 01:12:35;;;;;;;10.75;5.90;;;;;;;1.32;60.47;95503.59;5094792;28;20070;-75
2023/02/18 01:15:01;;;;;;;11.93;5.68;;;;;;;1.26;59.71;95494.38;5112779;28;20401;-74
2023/02/18 01:17:26;;;;;;;10.18;6.47;;;;;;;1.20;60.45;95502.28;5111351;28;20480;-75
2023/02/18 01:19:52;;;;;;;8.13;5.25;;;;;;;1.31;61.65;95501.91;5095292;28;20035;-74
2023/02/18 01:22:17;;;;;;;9.27;6.15;;;;;;;1.09;62.44;95501.84;5112359;28;20603;-74
2023/02/18 01:24:43;;;;;;;8.73;5.95;;;;;;;1.10;62.23;95499.22;5112816;28;20036;-74
2023/02/18 01:27:08;;;;;;;10.18;6.38;;;;;;;1.02;62.27;95505.47;5094445;28;20028;-74
2023/02/18 01:29:34;;;;;;;17.27;8.45;;;;;;;1.09;62.55;95496.72;5112477;28;20092;-74
2023/02/18 01:31:59;;;;;;;11.95;6.43;;;;;;;1.00;61.81;95502.13;5112273;28;20039;-75
2023/02/18 01:34:24;;;;;;;8.82;6.28;;;;;;;0.86;62.46;95497.47;5113644;28;20035;-75
2023/02/18 01:36:50;;;;;;;10.50;6.13;;;;;;;0.86;63.04;95495.78;5111035;28;20031;-74
2023/02/18 01:39:15;;;;;;;11.55;6.40;;;;;;;0.92;62.96;95493.88;5113010;28;20023;-75
2023/02/18 01:41:41;;;;;;;12.80;6.57;;;;;;;1.13;62.06;95492.31;5112105;28;20480;-74
2023/02/18 01:44:14;;;;;;;10.73;6.25;;;;;;;1.08;62.59;95495.03;5095182;28;20496;-74
2023/02/18 01:46:40;;;;;;;12.70;5.82;;;;;;;0.91;64.15;95482.00;5077510;28;20054;-74
2023/02/18 01:49:06;;;;;;;11.57;6.55;;;;;;;1.10;62.41;95503.50;5112009;28;20496;-74
2023/02/18 01:51:40;;;;;;;9.98;6.00;;;;;;;1.11;62.69;95500.03;5094987;28;20027;-74
2023/02/18 01:54:27;;;;;;;12.43;6.00;;;;;;;1.13;62.54;95513.63;5096016;28;20027;-74
2023/02/18 01:57:03;;;;;;;15.13;7.22;;;;;;;1.18;62.60;95505.78;5111557;28;20217;-75
2023/02/18 01:59:47;;;;;;;9.75;6.20;;;;;;;0.90;63.96;95504.19;5113387;28;20164;-75
2023/02/18 02:02:16;;;;;;;11.57;6.72;;;;;;;0.91;63.82;95523.75;5095387;28;20405;-74
2023/02/18 02:04:41;;;;;;;16.00;7.75;;;;;;;0.93;63.58;95523.72;5094972;28;20405;-75
2023/02/18 02:07:07;;;;;;;15.77;8.63;;;;;;;0.74;63.85;95520.94;5093511;28;20023;-75
2023/02/18 02:09:32;;;;;;;14.85;7.30;;;;;;;0.75;63.64;95507.25;5093570;28;20031;-74
2023/02/18 02:12:18;;;;;;;12.32;6.55;;;;;;;0.80;63.81;95523.28;5093670;28;20035;-74
2023/02/18 02:15:09;;;;;;;12.52;6.47;;;;;;;0.91;62.32;95517.81;5111464;28;20030;-74
2023/02/18 02:18:05;;;;;;;15.43;6.60;;;;;;;1.02;61.02;95505.47;5110883;28;20031;-74
2023/02/18 02:20:37;;;;;;;9.77;6.00;;;;;;;1.05;61.64;95495.97;5111409;28;20393;-75
2023/02/18 02:23:21;;;;;;;9.63;6.25;;;;;;;1.22;60.42;95489.44;5113187;28;20036;-74
2023/02/18 02:26:23;;;;;;;10.88;6.10;;;;;;;1.39;59.62;95493.94;5112396;28;20038;-75
2023/02/18 02:29:04;;;;;;;11.77;6.13;;;;;;;1.43;59.67;95490.41;5112506;28;20043;-75
2023/02/18 02:31:53;;;;;;;10.45;6.00;;;;;;;1.61;59.49;95507.63;5111698;28;20496;-75
2023/02/18 02:35:03;;;;;;;10.18;5.85;;;;;;;1.71;59.08;95503.03;5112486;28;20080;-75
2023/02/18 02:37:47;;;;;;;9.45;6.07;;;;;;;1.79;58.49;95491.59;5097684;28;20093;-74
2023/02/18 02:40:31;;;;;;;9.68;5.63;;;;;;;1.92;57.91;95486.00;5111763;28;20549;-75
2023/02/18 02:43:15;;;;;;;11.63;5.93;;;;;;;2.01;57.06;95477.97;5111117;28;20126;-74
2023/02/18 02:46:08;;;;;;;11.02;5.82;;;;;;;2.19;57.51;95476.41;5094776;28;20024;-75
2023/02/18 02:48:45;;;;;;;12.45;5.82;;;;;;;2.03;60.07;95478.72;5110799;28;20031;-74
2023/02/18 02:51:18;;;;;;;17.08;9.18;;;;;;;2.06;58.89;95464.94;5110477;28;20410;-74
2023/02/18 02:53:44;;;;;;;14.73;7.95;;;;;;;2.00;58.94;95468.59;5110791;28;20051;-74
2023/02/18 02:56:17;;;;;;;11.82;7.05;;;;;;;1.95;59.40;95467.94;5110304;28;20023;-74
2023/02/18 02:58:44;;;;;;;11.00;6.00;;;;;;;2.02;58.62;95459.13;5076716;28;20157;-73
2023/02/18 03:01:34;;;;;;;10.45;6.07;;;;;;;2.07;57.94;95454.66;5093782;28;20080;-74
2023/02/18 03:04:09;;;;;;;8.25;5.32;;;;;;;2.18;57.89;95456.81;5110731;28;20063;-74
2023/02/18 03:06:40;;;;;;;11.48;6.55;;;;;;;2.22;57.58;95459.16;5110079;28;20461;-74
2023/02/18 03:09:08;;;;;;;;;;;;;;;2.24;57.50;95470.19;5111814;28;20038;-74
2023/02/18 03:11:41;;;;;;;12.05;9.05;;;;;;;1.97;57.90;95474.66;5111772;28;19915;-74
2023/02/18 03:14:06;;;;;;;14.77;8.82;;;;;;;1.76;58.03;95489.16;5094230;28;20027;-74
2023/02/18 03:16:31;;;;;;;12.10;7.60;;;;;;;1.71;58.92;95485.91;5110386;28;20027;-74
2023/02/18 03:19:11;;;;;;;10.32;6.47;;;;;;;1.66;59.72;95502.34;5111437;28;20027;-74
2023/02/18 03:21:36;;;;;;;8.57;5.78;;;;;;;1.64;60.24;95497.28;5111404;28;20030;-75
2023/02/18 03:24:05;;;;;;;10.00;5.40;;;;;;;1.62;60.55;95490.56;5111628;28;20023;-74
2023/02/18 03:26:30;;;;;;;9.75;5.70;;;;;;;1.64;60.90;95493.88;5110976;28;20031;-74
2023/02/18 03:28:58;;;;;;;12.60;6.00;;;;;;;1.29;62.75;95499.41;5093362;28;20035;-74
2023/02/18 03:31:25;;;;;;;11.45;7.50;;;;;;;1.09;61.44;95484.75;5109401;28;20480;-74
2023/02/18 03:33:54;;;;;;;16.42;7.88;;;;;;;1.06;61.54;95507.06;5109766;28;20529;-74
2023/02/18 03:36:19;;;;;;;10.52;6.97;;;;;;;1.05;61.34;95506.19;5093447;28;20027;-74
2023/02/18 03:38:50;;;;;;;12.18;6.60;;;;;;;0.96;61.86;95542.34;5127229;27;20032;-75
2023/02/18 03:41:15;;;;;;;10.65;6.05;;;;;;;0.97;61.16;95546.56;5089403;28;20048;-74
2023/02/18 03:43:48;;;;;;;11.73;6.63;;;;;;;0.76;61.42;95544.75;5089801;28;20082;-75
2023/02/18 03:46:13;;;;;;;11.18;6.30;;;;;;;0.51;62.42;95535.31;5090713;28;20027;-74
2023/02/18 03:48:39;;;;;;;12.95;7.30;;;;;;;0.67;62.58;95540.78;5126370;28;20104;-74
2023/02/18 03:51:04;;;;;;;14.55;8.38;;;;;;;0.66;62.98;95554.44;5107896;28;20084;-74
2023/02/18 03:53:30;;;;;;;11.18;6.68;;;;;;;0.34;64.85;95555.47;5110142;28;20059;-73
2023/02/18 03:55:55;;;;;;;10.27;5.88;;;;;;;0.43;64.37;95547.50;5109622;28;20032;-73
2023/02/18 03:58:21;;;;;;;13.70;6.47;;;;;;;0.48;63.97;95553.31;5092792;28;20055;-73
2023/02/18 04:00:46;;;;;;;11.93;6.70;;;;;;;0.44;63.89;95547.44;5109948;28;20028;-73
2023/02/18 04:03:11;;;;;;;12.13;6.45;;;;;;;0.46;64.42;95554.22;5108494;28;20036;-73
2023/02/18 04:05:37;;;;;;;10.55;6.28;;;;;;;0.50;64.38;95545.56;5109336;28;20031;-74
2023/02/18 04:08:02;;;;;;;10.77;5.82;;;;;;;0.52;64.44;95552.31;5109652;28;20035;-74
2023/02/18 04:10:28;;;;;;;12.07;6.35;;;;;;;0.53;65.21;95540.34;5111238;28;20032;-74
2023/02/18 04:12:53;;;;;;;10.25;6.35;;;;;;;0.52;64.15;95528.47;5111321;28;20035;-74
2023/02/18 04:15:19;;;;;;;10.15;6.10;;;;;;;0.47;64.86;95528.59;5092503;28;20035;-73
2023/02/18 04:17:44;;;;;;;12.00;5.80;;;;;;;0.59;63.79;95517.16;5092178;28;20036;-74
2023/02/18 04:20:10;;;;;;;12.10;5.50;;;;;;;0.52;64.20;95503.72;5110458;28;20028;-73
2023/02/18 04:22:35;;;;;;;11.90;6.50;;;;;;;0.65;64.42;95512.69;5092822;28;20035;-74
2023/02/18 04:25:01;;;;;;;9.63;5.90;;;;;;;0.48;63.02;95509.00;5108170;28;20020;-74
2023/02/18 04:27:26;;;;;;;9.10;5.40;;;;;;;0.50;63.54;95502.94;5104827;28;20031;-74
2023/02/18 04:29:52;;;;;;;9.88;5.47;;;;;;;0.44;64.35;95500.59;5088395;28;20031;-74
2023/02/18 04:32:17;;;;;;;8.65;5.18;;;;;;;0.35;64.04;95504.28;5105600;28;20032;-74
2023/02/18 04:34:43;;;;;;;9.55;5.10;;;;;;;0.22;64.44;95491.06;5107376;28;20043;-73
2023/02/18 04:37:08;;;;;;;9.27;5.20;;;;;;;0.24;65.91;95497.84;5091293;28;20054;-74
2023/02/18 04:39:34;;;;;;;8.10;5.00;;;;;;;0.46;65.56;95510.78;5092621;28;20027;-73
2023/02/18 04:41:59;;;;;;;8.10;5.40;;;;;;;0.33;65.14;95500.09;5111218;28;20401;-74
2023/02/18 04:44:25;;;;;;;8.90;5.50;;;;;;;0.28;65.19;95514.72;5109768;28;20073;-73
2023/02/18 04:46:50;;;;;;;7.38;5.32;;;;;;;0.20;65.60;95510.72;5090562;28;20425;-73
2023/02/18 04:49:15;;;;;;;9.43;5.10;;;;;;;0.22;66.13;95519.19;5111130;28;20039;-74
2023/02/18 04:51:41;;;;;;;7.28;4.70;;;;;;;0.10;65.99;95495.72;5092057;28;20100;-73
2023/02/18 04:54:06;;;;;;;8.90;4.68;;;;;;;0.09;66.35;95519.59;5111160;27;20038;-75
2023/02/18 04:56:32;;;;;;;10.52;5.10;;;;;;;0.05;65.96;95518.00;5090018;28;20030;-74
2023/02/18 04:58:58;;;;;;;8.75;5.13;;;;;;;0.06;66.53;95512.03;5108732;28;20071;-80
2023/02/18 05:01:23;;;;;;;8.18;5.20;;;;;;;0.08;66.66;95512.78;5108908;28;20019;-75
2023/02/18 05:03:49;;;;;;;9.75;5.15;;;;;;;-0.01;67.01;95527.53;5110849;28;20076;-74
2023/02/18 05:06:14;;;;;;;8.90;5.57;;;;;;;0.11;66.46;95522.91;5109309;28;20024;-75
2023/02/18 05:08:39;;;;;;;13.93;6.22;;;;;;;0.07;66.00;95529.03;5106224;28;20035;-74
2023/02/18 05:11:08;;;;;;;9.25;5.57;;;;;;;0.19;66.01;95526.91;5110364;28;20028;-74
2023/02/18 05:13:34;;;;;;;21.42;14.30;;;;;;;0.24;66.76;95533.63;5092124;28;20119;-74
2023/02/18 05:15:59;;;;;;;13.18;7.00;;;;;;;0.22;67.02;95541.31;5106734;27;20039;-73
2023/02/18 05:18:25;;;;;;;8.68;5.20;;;;;;;0.30;66.72;95541.91;5091537;28;20039;-73
2023/02/18 05:20:50;;;;;;;8.43;4.60;;;;;;;0.35;66.99;95540.06;5109932;28;20096;-73
2023/02/18 05:23:17;;;;;;;8.27;5.15;;;;;;;0.29;67.06;95527.47;5109219;28;20039;-74
2023/02/18 05:25:42;;;;;;;10.15;5.15;;;;;;;0.32;66.77;95531.66;5087520;28;20040;-74
2023/02/18 05:28:08;;;;;;;9.13;5.38;;;;;;;0.20;67.15;95515.81;5108380;28;20036;-73
2023/02/18 05:30:33;;;;;;;8.68;5.45;;;;;;;0.32;66.16;95524.81;5108842;28;20026;-73
2023/02/18 05:32:59;;;;;;;9.55;5.68;;;;;;;0.44;66.89;95537.19;5091513;28;20039;-74
2023/02/18 05:35:24;;;;;;;8.02;5.38;;;;;;;0.40;66.39;95499.84;5090421;28;20429;-73
2023/02/18 05:37:50;;;;;;;9.82;5.00;;;;;;;0.56;66.31;95502.75;5108539;28;20435;-73
2023/02/18 05:40:15;;;;;;;7.18;4.90;;;;;;;0.69;65.94;95489.56;5108781;28;20408;-73
2023/02/18 05:42:40;;;;;;;10.93;4.50;;;;;;;0.72;65.10;95482.59;5091729;28;20031;-73
2023/02/18 05:45:06;;;;;;;18.45;8.30;;;;;;;0.69;63.83;95507.47;5106384;28;20020;-73
2023/02/18 05:47:32;;;;;;;21.75;9.98;;;;;;;0.76;63.85;95524.28;5108597;28;20043;-73
2023/02/18 05:49:57;;;;;;;15.48;9.13;;;;;;;0.77;64.39;95520.81;5107837;28;20062;-73
2023/02/18 05:52:23;;;;;;;16.30;9.57;;;;;;;0.81;64.23;95528.34;5091617;28;20046;-73
2023/02/18 05:54:48;;;;;;;12.32;6.95;;;;;;;0.95;64.32;95535.56;5091284;28;20035;-74
2023/02/18 05:57:15;;;;;;;13.00;8.05;;;;;;;0.93;63.33;95521.16;5107038;28;20055;-74
2023/02/18 05:59:40;;;;;;;12.32;7.53;;;;;;;0.95;63.72;95527.03;5091170;28;20080;-73
2023/02/18 06:02:06;;;;;;;8.95;5.40;;;;;;;1.13;64.10;95526.41;5107432;28;20031;-73
2023/02/18 06:04:31;;;;;;;8.75;5.25;;;;;;;1.26;65.02;95534.53;5091524;28;20024;-73
2023/02/18 06:06:57;;;;;;;10.18;5.85;;;;;;;1.17;65.60;95540.78;5106219;28;20553;-72
2023/02/18 06:09:22;;;;;;;8.63;5.22;;;;;;;1.26;66.03;95552.44;5107884;28;20028;-73
2023/02/18 06:11:47;;;;;;;24.60;14.50;;;;;;;1.29;64.86;95525.00;5090608;28;20058;-75
2023/02/18 06:14:13;;;;;;;32.67;18.00;;;;;;;1.36;63.76;95522.22;5107990;28;20109;-75
2023/02/18 06:16:38;;;;;;;22.80;12.70;;;;;;;1.56;64.64;95542.81;5070689;28;20100;-72
2023/02/18 06:19:04;;;;;;;20.15;11.25;;;;;;;1.85;63.90;95543.50;5110095;28;20437;-72
2023/02/18 06:21:29;;;;;;;19.27;12.20;;;;;;;1.95;63.26;95540.53;5108555;28;20409;-74
2023/02/18 06:23:55;;;;;;;22.85;13.40;;;;;;;1.84;63.40;95535.00;5109559;28;20024;-73
2023/02/18 06:26:20;;;;;;;25.25;13.48;;;;;;;1.95;63.59;95532.84;5104494;28;20510;-74
2023/02/18 06:28:46;;;;;;;25.20;13.95;;;;;;;1.86;63.39;95517.81;5107683;28;20035;-74
2023/02/18 06:31:11;;;;;;;27.25;16.13;;;;;;;2.08;64.19;95540.06;5090458;28;20027;-72
2023/02/18 06:33:36;;;;;;;18.00;11.88;;;;;;;2.08;62.68;95519.56;5109808;28;20425;-74
2023/02/18 06:36:06;;;;;;;20.05;12.48;;;;;;;2.27;62.59;95532.50;5105509;28;20019;-74
2023/02/18 06:38:35;;;;;;;16.83;10.88;;;;;;;2.48;62.01;95529.13;5090488;28;20058;-74
2023/02/18 06:41:01;;;;;;;10.88;6.93;;;;;;;2.61;60.65;95532.00;5105690;28;20043;-73
2023/02/18 06:43:26;;;;;;;12.50;7.93;;;;;;;2.61;60.88;95519.19;5108857;28;20028;-73
2023/02/18 06:45:51;;;;;;;9.98;6.03;;;;;;;2.81;61.67;95503.78;5102894;28;20035;-74
2023/02/18 06:48:17;;;;;;;9.82;5.38;;;;;;;3.07;60.00;95518.13;5108873;28;20481;-77
2023/02/18 06:50:43;;;;;;;19.75;9.73;;;;;;;3.14;60.32;95518.69;5108199;28;20073;-75
2023/02/18 06:53:08;;;;;;;57.67;24.58;;;;;;;3.28;59.39;95505.25;5108822;28;20527;-78
2023/02/18 06:55:34;;;;;;;20.88;10.73;;;;;;;3.45;59.00;95512.22;5104768;28;20768;-77
2023/02/18 06:58:00;;;;;;;23.00;11.85;;;;;;;3.47;57.90;95493.28;5108995;28;20056;-78
2023/02/18 07:00:25;;;;;;;21.40;11.63;;;;;;;3.54;56.74;95475.88;5106817;28;20106;-76
2023/02/18 07:02:51;;;;;;;18.85;11.48;;;;;;;3.57;58.15;95507.41;5108586;28;20039;-75
2023/02/18 07:05:16;;;;;;;19.90;11.75;;;;;;;3.68;58.43;95498.38;5105909;28;20550;-75
2023/02/18 07:07:42;;;;;;;19.75;12.57;;;;;;;3.98;57.21;95480.72;5108363;28;20040;-76
2023/02/18 07:10:08;;;;;;;27.50;18.40;;;;;;;3.69;57.16;95453.78;5108146;27;20027;-76
2023/02/18 07:12:33;;;;;;;25.05;15.95;;;;;;;4.54;56.96;95527.81;5107517;28;20404;-74
2023/02/18 07:14:58;;;;;;;41.55;24.45;;;;;;;4.74;56.04;95527.72;5104656;28;20480;-75
2023/02/18 07:17:24;;;;;;;40.85;26.73;;;;;;;5.55;53.85;95515.06;5105551;28;20024;-74
2023/02/18 07:19:49;;;;;;;35.22;21.02;;;;;;;5.72;52.00;95499.56;5107439;27;20042;-75
2023/02/18 07:22:15;;;;;;;44.60;28.27;;;;;;;6.04;51.62;95509.91;5107121;27;20027;-74
2023/02/18 07:24:40;;;;;;;41.45;27.10;;;;;;;5.93;51.72;95505.34;5107604;28;20024;-74
2023/02/18 07:27:06;;;;;;;25.70;16.35;;;;;;;5.75;51.15;95496.81;5103765;28;20138;-75
2023/02/18 07:29:32;;;;;;;38.20;25.30;;;;;;;5.31;52.20;95442.44;5106241;28;20042;-77
2023/02/18 07:31:58;;;;;;;36.45;22.40;;;;;;;5.67;51.82;95493.81;5108096;28;20036;-76
2023/02/18 07:34:23;;;;;;;58.35;34.63;;;;;;;5.66;52.17;95496.47;5087353;28;20028;-75
2023/02/18 07:36:49;;;;;;;41.30;25.58;;;;;;;5.72;52.74;95486.66;5084656;28;20089;-75
2023/02/18 07:39:17;;;;;;;57.35;36.42;;;;;;;5.92;51.85;95474.44;5086899;28;20024;-76
2023/02/18 07:41:42;;;;;;;51.13;28.17;;;;;;;6.37;51.46;95498.69;5085835;28;20032;-77
2023/02/18 07:44:08;;;;;;;56.97;29.85;;;;;;;6.45;51.17;95505.06;5087507;28;20070;-76
2023/02/18 07:46:33;;;;;;;30.77;18.27;;;;;;;6.29;50.74;95511.16;5083777;28;20016;-75
2023/02/18 07:48:58;;;;;;;29.73;18.70;;;;;;;6.18;50.76;95501.44;5086602;28;20032;-76
2023/02/18 07:51:24;;;;;;;29.45;18.80;;;;;;;6.28;50.66;95512.94;5081790;28;20489;-74
2023/02/18 07:53:50;;;;;;;25.80;18.17;;;;;;;6.83;48.94;95509.84;5089395;28;20043;-76
2023/02/18 07:56:15;;;;;;;30.50;17.73;;;;;;;7.26;47.65;95528.03;5084310;28;20097;-74
2023/02/18 07:58:41;;;;;;;35.33;22.15;;;;;;;7.23;48.52;95525.63;5089155;28;20059;-74
2023/02/18 08:01:08;;;;;;;44.25;28.77;;;;;;;7.30;48.60;95520.91;5083121;28;20041;-72
2023/02/18 08:03:33;;;;;;;40.30;28.48;;;;;;;7.21;48.45;95501.63;5092786;28;20030;-74
2023/02/18 08:05:59;;;;;;;48.10;26.42;;;;;;;7.58;48.14;95520.97;5067671;28;20236;-72
2023/02/18 08:08:26;;;;;;;43.95;24.38;;;;;;;8.05;47.46;95524.16;5087926;28;20035;-73
2023/02/18 08:10:52;;;;;;;40.75;28.33;;;;;;;8.16;46.40;95511.41;5091274;28;20032;-72
2023/02/18 08:13:18;;;;;;;38.63;26.30;;;;;;;8.68;45.37;95502.13;5090367;28;20032;-78
2023/02/18 08:15:43;;;;;;;28.70;21.25;;;;;;;9.42;44.12;95510.25;5074915;28;20062;-73
2023/02/18 08:18:14;;;;;;;26.60;16.27;;;;;;;11.39;39.96;95508.38;5093846;28;20035;-73
2023/02/18 08:20:40;;;;;;;27.13;16.85;;;;;;;12.44;38.31;95486.38;5092211;28;20031;-73
2023/02/18 08:23:05;;;;;;;17.48;13.30;;;;;;;13.54;35.21;95489.63;5093370;28;20191;-76
2023/02/18 08:25:31;;;;;;;19.23;13.40;;;;;;;12.78;36.43;95501.09;5075790;28;20050;-72
2023/02/18 08:27:56;;;;;;;23.08;12.30;;;;;;;12.24;36.31;95498.38;5093112;28;20123;-73
2023/02/18 08:30:22;;;;;;;17.50;11.25;;;;;;;12.11;35.25;95495.09;5089625;28;20031;-73
2023/02/18 08:32:47;;;;;;;15.30;10.15;;;;;;;12.18;34.69;95500.66;5088652;28;20036;-72
2023/02/18 08:35:13;;;;;;;15.98;10.80;;;;;;;12.11;35.43;95476.03;5096933;28;20035;-72
2023/02/18 08:37:38;;;;;;;18.38;10.07;;;;;;;12.07;35.16;95494.50;5092747;28;20493;-72
2023/02/18 08:40:05;;;;;;;14.88;10.60;;;;;;;11.71;35.36;95463.47;5096007;28;20024;-72
2023/02/18 08:42:30;;;;;;;15.80;10.55;;;;;;;11.50;35.21;95477.16;5091789;28;20028;-73
2023/02/18 08:44:56;;;;;;;26.67;14.45;;;;;;;11.21;35.86;95457.75;5073831;28;20032;-74
2023/02/18 08:47:21;;;;;;;20.20;12.88;;;;;;;11.20;36.60;95477.75;5054277;28;20521;-74
2023/02/18 08:49:47;;;;;;;23.13;12.60;;;;;;;11.04;37.07;95465.03;5090958;28;20493;-75
2023/02/18 08:52:12;;;;;;;19.00;12.50;;;;;;;10.87;37.50;95465.47;5093442;28;20039;-72
2023/02/18 08:54:38;;;;;;;23.30;12.65;;;;;;;10.83;38.23;95471.81;5092390;28;20643;-74
2023/02/18 08:57:03;;;;;;;24.65;14.50;;;;;;;10.55;38.71;95479.00;5091927;28;20114;-76
2023/02/18 08:59:29;;;;;;;23.35;14.27;;;;;;;10.41;38.73;95467.00;5093646;28;20081;-76
2023/02/18 09:01:54;;;;;;;23.00;12.32;;;;;;;10.03;39.07;95477.53;5088803;28;20086;-76
2023/02/18 09:04:20;;;;;;;25.33;13.60;;;;;;;9.84;39.95;95496.13;5072649;28;20036;-76
2023/02/18 09:06:46;;;;;;;26.10;13.88;;;;;;;9.54;39.69;95480.91;5090320;28;20034;-75
2023/02/18 09:09:12;;;;;;;24.38;12.38;;;;;;;9.47;39.62;95490.00;5092666;28;20036;-76
2023/02/18 09:11:37;;;;;;;26.17;13.00;;;;;;;9.55;39.74;95492.91;5093714;28;20065;-76
2023/02/18 09:14:03;;;;;;;27.30;13.43;;;;;;;9.46;39.68;95488.38;5092482;28;20382;-75
2023/02/18 09:16:28;;;;;;;15.55;10.45;;;;;;;9.40;39.01;95489.59;5090559;28;20416;-76
2023/02/18 09:18:54;;;;;;;14.43;9.52;;;;;;;9.29;39.73;95492.91;5073147;28;20031;-75
2023/02/18 09:21:21;;;;;;;96.20;35.63;;;;;;;9.44;40.09;95492.81;5072838;28;20059;-77
2023/02/18 09:23:46;;;;;;;40.28;16.45;;;;;;;9.48;40.40;95494.28;5091271;28;20028;-75
2023/02/18 09:26:13;;;;;;;20.08;10.80;;;;;;;9.30;40.64;95491.16;5073240;28;20023;-76
2023/02/18 09:28:39;;;;;;;16.92;10.60;;;;;;;9.32;40.08;95481.50;5056947;28;20117;-75
2023/02/18 09:31:14;;;;;;;17.67;10.02;;;;;;;9.00;39.97;95479.31;5092127;28;20409;-76
2023/02/18 09:33:42;;;;;;;17.60;9.70;;;;;;;9.04;40.81;95482.53;5092085;28;20517;-76
2023/02/18 09:36:08;;;;;;;15.77;8.82;;;;;;;9.30;40.65;95486.78;5074449;28;20027;-76
2023/02/18 09:38:33;;;;;;;15.25;9.10;;;;;;;9.40;39.84;95468.88;5093556;28;20047;-76
2023/02/18 09:40:59;;;;;;;17.83;9.65;;;;;;;9.60;39.29;95457.13;5058370;28;20520;-76
2023/02/18 09:43:28;;;;;;;18.77;9.70;;;;;;;9.95;38.99;95461.66;5075337;28;20024;-76
2023/02/18 09:45:53;;;;;;;15.73;9.43;;;;;;;9.87;38.85;95451.78;5093029;28;20111;-76
2023/02/18 09:48:21;;;;;;;14.90;8.57;;;;;;;10.03;38.04;95456.75;5091931;28;20094;-76
2023/02/18 09:50:47;;;;;;;13.48;9.00;;;;;;;10.04;37.51;95458.41;5058290;28;20028;-75
2023/02/18 09:53:12;;;;;;;15.43;9.38;;;;;;;10.00;36.88;95426.66;5074968;28;20035;-77
2023/02/18 09:55:39;;;;;;;17.95;9.65;;;;;;;10.21;37.39;95445.03;5074850;28;20036;-76
2023/02/18 09:58:31;;;;;;;17.02;9.65;;;;;;;10.08;36.84;95446.84;5074948;28;20056;-76
2023/02/18 10:01:06;;;;;;;16.48;9.32;;;;;;;10.39;37.08;95460.28;5060448;28;20119;-75
2023/02/18 10:03:31;;;;;;;16.00;9.18;;;;;;;10.36;36.96;95442.31;5074682;28;20040;-76
2023/02/18 10:06:01;;;;;;;16.50;9.40;;;;;;;10.65;36.40;95463.59;5092715;28;20078;-76
2023/02/18 10:08:32;;;;;;;16.55;10.00;;;;;;;10.54;35.70;95442.78;5074570;28;20044;-75
2023/02/18 10:10:58;;;;;;;15.82;9.52;;;;;;;10.58;36.49;95447.63;5075246;28;20027;-76
2023/02/18 10:13:25;;;;;;;17.27;9.75;;;;;;;10.64;36.33;95435.94;5074579;28;20036;-76
2023/02/18 10:15:50;;;;;;;16.55;9.55;;;;;;;10.58;35.72;95455.41;5074509;28;20028;-76
2023/02/18 10:18:23;;;;;;;19.17;12.40;;;;;;;10.54;36.65;95441.00;5074328;28;20038;-76
2023/02/18 10:20:50;;;;;;;21.05;12.85;;;;;;;10.46;36.97;95396.56;5074635;28;20470;-75
2023/02/18 10:23:16;;;;;;;18.27;11.63;;;;;;;10.84;36.41;95437.09;5074269;28;20577;-76
2023/02/18 10:25:43;;;;;;;18.35;11.70;;;;;;;11.04;35.89;95441.63;5091043;28;20031;-76
2023/02/18 10:28:09;;;;;;;16.27;10.60;;;;;;;11.12;35.94;95430.66;5057579;28;20417;-76
2023/02/18 10:30:39;;;;;;;16.25;9.98;;;;;;;11.18;35.21;95431.03;5074107;28;20024;-76
2023/02/18 10:33:28;;;;;;;15.47;9.07;;;;;;;11.44;34.52;95437.81;5090329;28;20085;-76
2023/02/18 10:36:07;;;;;;;19.77;10.05;;;;;;;11.47;34.56;95427.97;5081173;28;20908;-75
2023/02/18 10:39:03;;;;;;;16.75;9.57;;;;;;;11.68;34.16;95424.69;5090784;28;20031;-75
2023/02/18 10:42:13;;;;;;;15.82;9.48;;;;;;;11.56;34.11;95429.03;5091995;28;20028;-76
2023/02/18 10:44:45;;;;;;;15.45;9.43;;;;;;;11.80;33.61;95421.94;5090526;28;20132;-75
2023/02/18 10:47:23;;;;;;;16.20;9.68;;;;;;;11.93;33.81;95419.25;5091917;28;20036;-76
2023/02/18 10:50:00;;;;;;;15.73;9.48;;;;;;;12.14;33.97;95410.69;5090421;28;20123;-75
2023/02/18 10:52:40;;;;;;;18.23;8.98;;;;;;;12.30;33.30;95400.69;5091463;28;20118;-75
2023/02/18 10:55:08;;;;;;;16.00;9.75;;;;;;;12.57;33.51;95399.44;5090921;28;20028;-75
2023/02/18 10:57:33;;;;;;;14.70;9.10;;;;;;;12.73;32.69;95390.22;5073406;28;20078;-76
2023/02/18 11:00:09;;;;;;;14.85;9.32;;;;;;;12.93;32.81;95383.34;5073547;28;20035;-77
2023/02/18 11:02:35;;;;;;;14.70;9.50;;;;;;;13.10;32.49;95379.34;5059151;28;20405;-75
2023/02/18 11:05:06;;;;;;;14.88;9.65;;;;;;;13.06;32.37;95366.69;5090358;28;20020;-76
2023/02/18 11:07:32;;;;;;;;;;;;;;;13.16;31.94;95380.59;5074228;28;20075;-76
2023/02/18 11:10:19;;;;;;;13.77;8.90;;;;;;;13.15;32.13;95369.34;5091439;28;19958;-76
2023/02/18 11:12:46;;;;;;;20.45;9.80;;;;;;;12.89;31.92;95374.13;5083114;28;20090;-75
2023/02/18 11:15:15;;;;;;;15.25;9.60;;;;;;;12.80;32.02;95366.25;5091442;28;20028;-76
2023/02/18 11:17:41;;;;;;;18.02;9.85;;;;;;;12.92;32.39;95366.03;5091523;28;20064;-75
2023/02/18 11:20:30;;;;;;;14.60;9.35;;;;;;;13.07;31.50;95363.13;5090036;28;20027;-76
2023/02/18 11:23:13;;;;;;;12.50;9.40;;;;;;;13.24;31.59;95359.91;5090259;28;20039;-75
2023/02/18 11:25:39;;;;;;;16.27;9.88;;;;;;;13.36;32.10;95353.69;5058796;28;20405;-76
2023/02/18 11:28:17;;;;;;;16.77;9.82;;;;;;;13.40;31.80;95343.81;5073282;28;20221;-76
2023/02/18 11:30:43;;;;;;;12.82;8.80;;;;;;;13.41;31.80;95338.47;5091123;28;20046;-76
2023/02/18 11:33:19;;;;;;;14.98;9.18;;;;;;;13.38;31.95;95317.84;5073268;28;20554;-76
2023/02/18 11:35:49;;;;;;;14.02;8.70;;;;;;;13.54;31.61;95327.81;5057251;28;20039;-76
2023/02/18 11:38:40;;;;;;;15.50;8.68;;;;;;;13.65;31.64;95316.44;5073306;28;20040;-76